sensor_id;sensor_type;location;lat;lon;timestamp;P1;durP1;ratioP1;P2;durP2;ratioP2
5696;SDS011;2873;50.966;7.210;2023-08-24T00:02:00;9.30;;;4.70;;
5696;SDS011;2873;50.966;7.210;2023-08-24T00:04:26;7.43;;;3.95;;
5696;SDS011;2873;50.966;7.210;2023-08-24T00:06:52;10.77;;;4.27;;
5696;SDS011;2873;50.966;7.210;2023-08-24T00:09:18;6.15;;;4.00;;
5696;SDS011;2873;50.966;7.210;2023-08-24T00:11:44;7.47;;;4.20;;
5696;SDS011;2873;50.966;7.210;2023-08-24T00:14:10;4.30;;;3.72;;
5696;SDS011;2873;50.966;7.210;2023-08-24T00:16:36;5.20;;;4.07;;
5696;SDS011;2873;50.966;7.210;2023-08-24T00:19:01;7.65;;;4.20;;
5696;SDS011;2873;50.966;7.210;2023-08-24T00:21:27;6.60;;;3.90;;
5696;SDS011;2873;50.966;7.210;2023-08-24T00:23:53;7.25;;;4.40;;
5696;SDS011;2873;50.966;7.210;2023-08-24T00:26:19;8.43;;;4.20;;
5696;SDS011;2873;50.966;7.210;2023-08-24T00:28:45;7.45;;;4.43;;
5696;SDS011;2873;50.966;7.210;2023-08-24T00:31:11;5.10;;;3.75;;
5696;SDS011;2873;50.966;7.210;2023-08-24T00:33:36;7.40;;;4.03;;
5696;SDS011;2873;50.966;7.210;2023-08-24T00:36:02;7.50;;;4.18;;
5696;SDS011;2873;50.966;7.210;2023-08-24T00:38:30;5.85;;;3.90;;
5696;SDS011;2873;50.966;7.210;2023-08-24T00:40:56;11.02;;;4.30;;
5696;SDS011;2873;50.966;7.210;2023-08-24T00:43:23;9.65;;;4.68;;
5696;SDS011;2873;50.966;7.210;2023-08-24T00:45:52;8.70;;;4.20;;
5696;SDS011;2873;50.966;7.210;2023-08-24T00:48:20;4.83;;;4.10;;
5696;SDS011;2873;50.966;7.210;2023-08-24T00:50:50;11.82;;;4.40;;
5696;SDS011;2873;50.966;7.210;2023-08-24T00:53:17;9.27;;;4.53;;
5696;SDS011;2873;50.966;7.210;2023-08-24T00:55:44;10.95;;;4.28;;
5696;SDS011;2873;50.966;7.210;2023-08-24T00:58:09;6.03;;;4.22;;
5696;SDS011;2873;50.966;7.210;2023-08-24T01:00:35;8.60;;;4.40;;
5696;SDS011;2873;50.966;7.210;2023-08-24T01:03:02;8.52;;;4.68;;
5696;SDS011;2873;50.966;7.210;2023-08-24T01:05:28;9.10;;;4.32;;
5696;SDS011;2873;50.966;7.210;2023-08-24T01:07:54;8.00;;;4.00;;
5696;SDS011;2873;50.966;7.210;2023-08-24T01:10:20;7.60;;;4.40;;
5696;SDS011;2873;50.966;7.210;2023-08-24T01:18:04;6.47;;;3.90;;
5696;SDS011;2873;50.966;7.210;2023-08-24T01:20:31;7.70;;;4.10;;
5696;SDS011;2873;50.966;7.210;2023-08-24T01:25:51;8.15;;;4.72;;
5696;SDS011;2873;50.966;7.210;2023-08-24T01:28:22;7.88;;;4.40;;
5696;SDS011;2873;50.966;7.210;2023-08-24T01:30:49;7.45;;;4.50;;
5696;SDS011;2873;50.966;7.210;2023-08-24T01:33:14;6.45;;;4.55;;
5696;SDS011;2873;50.966;7.210;2023-08-24T01:35:40;10.85;;;4.85;;
5696;SDS011;2873;50.966;7.210;2023-08-24T01:38:06;6.85;;;4.30;;
5696;SDS011;2873;50.966;7.210;2023-08-24T01:43:05;10.88;;;4.40;;
5696;SDS011;2873;50.966;7.210;2023-08-24T01:45:32;13.15;;;4.40;;
5696;SDS011;2873;50.966;7.210;2023-08-24T01:47:59;7.68;;;3.92;;
5696;SDS011;2873;50.966;7.210;2023-08-24T01:50:28;7.67;;;4.33;;
5696;SDS011;2873;50.966;7.210;2023-08-24T01:52:55;6.60;;;4.15;;
5696;SDS011;2873;50.966;7.210;2023-08-24T01:55:21;6.68;;;3.80;;
5696;SDS011;2873;50.966;7.210;2023-08-24T01:57:47;7.40;;;4.00;;
5696;SDS011;2873;50.966;7.210;2023-08-24T02:00:13;8.67;;;4.60;;
5696;SDS011;2873;50.966;7.210;2023-08-24T02:02:39;8.68;;;4.40;;
5696;SDS011;2873;50.966;7.210;2023-08-24T02:05:05;11.27;;;4.60;;
5696;SDS011;2873;50.966;7.210;2023-08-24T02:07:30;7.50;;;4.30;;
5696;SDS011;2873;50.966;7.210;2023-08-24T02:09:56;8.73;;;4.20;;
5696;SDS011;2873;50.966;7.210;2023-08-24T02:12:21;10.03;;;4.60;;
5696;SDS011;2873;50.966;7.210;2023-08-24T02:14:47;11.80;;;4.40;;
5696;SDS011;2873;50.966;7.210;2023-08-24T02:17:13;8.23;;;4.13;;
5696;SDS011;2873;50.966;7.210;2023-08-24T02:19:39;11.00;;;5.00;;
5696;SDS011;2873;50.966;7.210;2023-08-24T02:22:06;6.45;;;4.30;;
5696;SDS011;2873;50.966;7.210;2023-08-24T02:24:32;6.20;;;4.20;;
5696;SDS011;2873;50.966;7.210;2023-08-24T02:26:57;4.77;;;4.20;;
5696;SDS011;2873;50.966;7.210;2023-08-24T02:29:23;10.90;;;4.50;;
5696;SDS011;2873;50.966;7.210;2023-08-24T02:31:51;6.83;;;4.30;;
5696;SDS011;2873;50.966;7.210;2023-08-24T02:34:17;7.82;;;4.50;;
5696;SDS011;2873;50.966;7.210;2023-08-24T02:36:43;6.68;;;4.40;;
5696;SDS011;2873;50.966;7.210;2023-08-24T02:39:09;6.60;;;4.60;;
5696;SDS011;2873;50.966;7.210;2023-08-24T02:41:35;9.57;;;4.28;;
5696;SDS011;2873;50.966;7.210;2023-08-24T02:44:01;9.10;;;4.30;;
5696;SDS011;2873;50.966;7.210;2023-08-24T02:46:27;7.07;;;4.35;;
5696;SDS011;2873;50.966;7.210;2023-08-24T02:48:52;9.53;;;4.80;;
5696;SDS011;2873;50.966;7.210;2023-08-24T02:51:21;7.57;;;4.80;;
5696;SDS011;2873;50.966;7.210;2023-08-24T02:53:48;6.13;;;4.03;;
5696;SDS011;2873;50.966;7.210;2023-08-24T02:56:14;7.65;;;4.20;;
5696;SDS011;2873;50.966;7.210;2023-08-24T02:58:39;5.80;;;4.60;;
5696;SDS011;2873;50.966;7.210;2023-08-24T03:01:05;12.20;;;4.60;;
5696;SDS011;2873;50.966;7.210;2023-08-24T03:03:35;6.32;;;4.28;;
5696;SDS011;2873;50.966;7.210;2023-08-24T03:06:01;13.90;;;4.50;;
5696;SDS011;2873;50.966;7.210;2023-08-24T03:08:29;7.03;;;4.80;;
5696;SDS011;2873;50.966;7.210;2023-08-24T03:10:56;7.18;;;4.13;;
5696;SDS011;2873;50.966;7.210;2023-08-24T03:13:22;5.78;;;4.20;;
5696;SDS011;2873;50.966;7.210;2023-08-24T03:15:48;5.25;;;4.50;;
5696;SDS011;2873;50.966;7.210;2023-08-24T03:18:15;5.63;;;4.10;;
5696;SDS011;2873;50.966;7.210;2023-08-24T03:20:41;7.17;;;4.60;;
5696;SDS011;2873;50.966;7.210;2023-08-24T03:23:08;7.53;;;3.92;;
5696;SDS011;2873;50.966;7.210;2023-08-24T03:25:38;7.50;;;4.30;;
5696;SDS011;2873;50.966;7.210;2023-08-24T03:28:05;12.07;;;4.80;;
5696;SDS011;2873;50.966;7.210;2023-08-24T03:30:35;9.77;;;4.20;;
5696;SDS011;2873;50.966;7.210;2023-08-24T03:33:01;11.57;;;4.23;;
5696;SDS011;2873;50.966;7.210;2023-08-24T03:35:28;8.60;;;4.10;;
5696;SDS011;2873;50.966;7.210;2023-08-24T03:37:55;7.03;;;4.30;;
5696;SDS011;2873;50.966;7.210;2023-08-24T03:40:20;7.65;;;4.38;;
5696;SDS011;2873;50.966;7.210;2023-08-24T03:42:46;10.87;;;3.93;;
5696;SDS011;2873;50.966;7.210;2023-08-24T03:45:11;9.67;;;4.40;;
5696;SDS011;2873;50.966;7.210;2023-08-24T03:47:37;10.00;;;4.70;;
5696;SDS011;2873;50.966;7.210;2023-08-24T03:50:02;7.83;;;4.50;;
5696;SDS011;2873;50.966;7.210;2023-08-24T03:52:28;6.90;;;4.18;;
5696;SDS011;2873;50.966;7.210;2023-08-24T03:54:54;7.70;;;4.40;;
5696;SDS011;2873;50.966;7.210;2023-08-24T03:57:19;9.57;;;4.70;;
5696;SDS011;2873;50.966;7.210;2023-08-24T03:59:45;10.20;;;4.60;;
5696;SDS011;2873;50.966;7.210;2023-08-24T04:02:11;9.93;;;5.00;;
5696;SDS011;2873;50.966;7.210;2023-08-24T04:04:36;6.10;;;5.00;;
5696;SDS011;2873;50.966;7.210;2023-08-24T04:07:02;9.30;;;5.27;;
5696;SDS011;2873;50.966;7.210;2023-08-24T04:09:28;7.20;;;6.20;;
5696;SDS011;2873;50.966;7.210;2023-08-24T04:11:53;7.37;;;5.70;;
5696;SDS011;2873;50.966;7.210;2023-08-24T04:14:19;11.15;;;5.63;;
5696;SDS011;2873;50.966;7.210;2023-08-24T04:16:45;10.93;;;5.00;;
5696;SDS011;2873;50.966;7.210;2023-08-24T04:19:10;5.00;;;4.50;;
5696;SDS011;2873;50.966;7.210;2023-08-24T04:21:36;12.60;;;4.20;;
5696;SDS011;2873;50.966;7.210;2023-08-24T04:24:01;8.70;;;4.70;;
5696;SDS011;2873;50.966;7.210;2023-08-24T04:26:27;6.82;;;4.90;;
5696;SDS011;2873;50.966;7.210;2023-08-24T04:28:53;9.80;;;4.80;;
5696;SDS011;2873;50.966;7.210;2023-08-24T04:31:18;8.33;;;4.60;;
5696;SDS011;2873;50.966;7.210;2023-08-24T04:33:43;12.70;;;4.20;;
5696;SDS011;2873;50.966;7.210;2023-08-24T04:36:09;7.03;;;4.25;;
5696;SDS011;2873;50.966;7.210;2023-08-24T04:38:34;7.50;;;4.32;;
5696;SDS011;2873;50.966;7.210;2023-08-24T04:41:00;10.15;;;4.40;;
5696;SDS011;2873;50.966;7.210;2023-08-24T04:43:26;9.17;;;4.90;;
5696;SDS011;2873;50.966;7.210;2023-08-24T04:45:52;8.25;;;4.47;;
5696;SDS011;2873;50.966;7.210;2023-08-24T04:48:19;6.60;;;5.00;;
5696;SDS011;2873;50.966;7.210;2023-08-24T04:50:45;6.40;;;4.57;;
5696;SDS011;2873;50.966;7.210;2023-08-24T04:53:16;9.02;;;5.00;;
5696;SDS011;2873;50.966;7.210;2023-08-24T04:55:43;10.23;;;4.80;;
5696;SDS011;2873;50.966;7.210;2023-08-24T04:58:08;7.63;;;4.90;;
5696;SDS011;2873;50.966;7.210;2023-08-24T05:00:35;8.53;;;4.40;;
5696;SDS011;2873;50.966;7.210;2023-08-24T05:03:01;6.82;;;4.40;;
5696;SDS011;2873;50.966;7.210;2023-08-24T05:05:31;9.40;;;4.03;;
5696;SDS011;2873;50.966;7.210;2023-08-24T05:07:58;6.47;;;4.30;;
5696;SDS011;2873;50.966;7.210;2023-08-24T05:10:24;9.98;;;5.15;;
5696;SDS011;2873;50.966;7.210;2023-08-24T05:12:49;7.03;;;4.80;;
5696;SDS011;2873;50.966;7.210;2023-08-24T05:15:15;8.97;;;4.37;;
5696;SDS011;2873;50.966;7.210;2023-08-24T05:17:41;7.90;;;5.10;;
5696;SDS011;2873;50.966;7.210;2023-08-24T05:20:07;13.27;;;5.70;;
5696;SDS011;2873;50.966;7.210;2023-08-24T05:22:33;8.20;;;5.20;;
5696;SDS011;2873;50.966;7.210;2023-08-24T05:24:59;7.53;;;5.40;;
5696;SDS011;2873;50.966;7.210;2023-08-24T05:27:25;7.53;;;6.00;;
5696;SDS011;2873;50.966;7.210;2023-08-24T05:29:51;10.93;;;5.88;;
5696;SDS011;2873;50.966;7.210;2023-08-24T05:32:16;7.68;;;5.70;;
5696;SDS011;2873;50.966;7.210;2023-08-24T05:34:42;10.50;;;5.80;;
5696;SDS011;2873;50.966;7.210;2023-08-24T05:37:07;8.63;;;5.20;;
5696;SDS011;2873;50.966;7.210;2023-08-24T05:39:33;6.73;;;5.17;;
5696;SDS011;2873;50.966;7.210;2023-08-24T05:41:58;6.60;;;5.13;;
5696;SDS011;2873;50.966;7.210;2023-08-24T05:44:24;6.60;;;5.00;;
5696;SDS011;2873;50.966;7.210;2023-08-24T05:46:49;8.95;;;5.70;;
5696;SDS011;2873;50.966;7.210;2023-08-24T05:49:15;8.47;;;5.33;;
5696;SDS011;2873;50.966;7.210;2023-08-24T05:51:40;10.43;;;5.03;;
5696;SDS011;2873;50.966;7.210;2023-08-24T05:54:06;6.90;;;4.90;;
5696;SDS011;2873;50.966;7.210;2023-08-24T05:56:32;5.38;;;4.60;;
5696;SDS011;2873;50.966;7.210;2023-08-24T05:58:58;8.57;;;5.03;;
5696;SDS011;2873;50.966;7.210;2023-08-24T06:01:23;5.80;;;5.20;;
5696;SDS011;2873;50.966;7.210;2023-08-24T06:03:49;13.97;;;5.50;;
5696;SDS011;2873;50.966;7.210;2023-08-24T06:06:15;9.32;;;5.30;;
5696;SDS011;2873;50.966;7.210;2023-08-24T06:08:41;8.77;;;5.32;;
5696;SDS011;2873;50.966;7.210;2023-08-24T06:11:08;14.02;;;5.30;;
5696;SDS011;2873;50.966;7.210;2023-08-24T06:13:33;9.93;;;5.43;;
5696;SDS011;2873;50.966;7.210;2023-08-24T06:15:59;7.15;;;5.10;;
5696;SDS011;2873;50.966;7.210;2023-08-24T06:18:25;6.15;;;5.22;;
5696;SDS011;2873;50.966;7.210;2023-08-24T06:20:50;8.00;;;4.87;;
5696;SDS011;2873;50.966;7.210;2023-08-24T06:23:16;8.90;;;5.43;;
5696;SDS011;2873;50.966;7.210;2023-08-24T06:25:43;9.32;;;5.20;;
5696;SDS011;2873;50.966;7.210;2023-08-24T06:28:08;10.10;;;5.57;;
5696;SDS011;2873;50.966;7.210;2023-08-24T06:30:38;6.70;;;4.68;;
5696;SDS011;2873;50.966;7.210;2023-08-24T06:33:05;9.93;;;5.95;;
5696;SDS011;2873;50.966;7.210;2023-08-24T06:35:32;9.30;;;5.50;;
5696;SDS011;2873;50.966;7.210;2023-08-24T06:37:58;8.20;;;5.20;;
5696;SDS011;2873;50.966;7.210;2023-08-24T06:40:24;6.43;;;4.93;;
5696;SDS011;2873;50.966;7.210;2023-08-24T06:42:49;10.20;;;5.53;;
5696;SDS011;2873;50.966;7.210;2023-08-24T06:45:15;8.10;;;5.70;;
5696;SDS011;2873;50.966;7.210;2023-08-24T06:47:43;8.77;;;6.07;;
5696;SDS011;2873;50.966;7.210;2023-08-24T06:50:09;9.57;;;5.60;;
5696;SDS011;2873;50.966;7.210;2023-08-24T06:52:35;8.90;;;5.80;;
5696;SDS011;2873;50.966;7.210;2023-08-24T06:55:00;13.35;;;5.95;;
5696;SDS011;2873;50.966;7.210;2023-08-24T06:57:27;7.32;;;5.32;;
5696;SDS011;2873;50.966;7.210;2023-08-24T06:59:52;6.33;;;5.50;;
5696;SDS011;2873;50.966;7.210;2023-08-24T07:02:18;7.20;;;4.77;;
5696;SDS011;2873;50.966;7.210;2023-08-24T07:04:44;7.55;;;5.10;;
5696;SDS011;2873;50.966;7.210;2023-08-24T07:07:10;7.30;;;5.30;;
5696;SDS011;2873;50.966;7.210;2023-08-24T07:09:35;7.35;;;4.40;;
5696;SDS011;2873;50.966;7.210;2023-08-24T07:12:01;6.93;;;4.88;;
5696;SDS011;2873;50.966;7.210;2023-08-24T07:14:28;8.70;;;5.20;;
5696;SDS011;2873;50.966;7.210;2023-08-24T07:16:53;9.88;;;5.68;;
5696;SDS011;2873;50.966;7.210;2023-08-24T07:19:19;5.27;;;4.57;;
5696;SDS011;2873;50.966;7.210;2023-08-24T07:21:45;8.77;;;4.22;;
5696;SDS011;2873;50.966;7.210;2023-08-24T07:24:11;6.30;;;4.40;;
5696;SDS011;2873;50.966;7.210;2023-08-24T07:26:36;6.50;;;4.50;;
5696;SDS011;2873;50.966;7.210;2023-08-24T07:29:02;9.48;;;4.20;;
5696;SDS011;2873;50.966;7.210;2023-08-24T07:31:28;9.32;;;4.50;;
5696;SDS011;2873;50.966;7.210;2023-08-24T07:33:53;6.90;;;4.27;;
5696;SDS011;2873;50.966;7.210;2023-08-24T07:36:19;5.40;;;4.57;;
5696;SDS011;2873;50.966;7.210;2023-08-24T07:38:45;10.03;;;4.80;;
5696;SDS011;2873;50.966;7.210;2023-08-24T07:41:12;6.53;;;3.85;;
5696;SDS011;2873;50.966;7.210;2023-08-24T07:43:37;4.65;;;4.18;;
5696;SDS011;2873;50.966;7.210;2023-08-24T07:46:03;5.10;;;4.22;;
5696;SDS011;2873;50.966;7.210;2023-08-24T07:48:29;7.40;;;4.50;;
5696;SDS011;2873;50.966;7.210;2023-08-24T07:50:55;4.77;;;4.20;;
5696;SDS011;2873;50.966;7.210;2023-08-24T07:53:21;5.47;;;4.00;;
5696;SDS011;2873;50.966;7.210;2023-08-24T07:55:47;5.95;;;4.00;;
5696;SDS011;2873;50.966;7.210;2023-08-24T07:58:12;8.90;;;4.00;;
5696;SDS011;2873;50.966;7.210;2023-08-24T08:00:38;5.93;;;4.23;;
5696;SDS011;2873;50.966;7.210;2023-08-24T08:03:04;5.35;;;4.03;;
5696;SDS011;2873;50.966;7.210;2023-08-24T08:05:30;4.37;;;3.97;;
5696;SDS011;2873;50.966;7.210;2023-08-24T08:07:55;7.47;;;4.17;;
5696;SDS011;2873;50.966;7.210;2023-08-24T08:10:21;5.78;;;3.50;;
5696;SDS011;2873;50.966;7.210;2023-08-24T08:12:46;6.60;;;3.88;;
5696;SDS011;2873;50.966;7.210;2023-08-24T08:15:12;6.47;;;4.30;;
5696;SDS011;2873;50.966;7.210;2023-08-24T08:17:37;4.40;;;4.00;;
5696;SDS011;2873;50.966;7.210;2023-08-24T08:20:03;4.00;;;3.70;;
5696;SDS011;2873;50.966;7.210;2023-08-24T08:22:30;5.57;;;3.80;;
5696;SDS011;2873;50.966;7.210;2023-08-24T08:25:00;6.00;;;3.58;;
5696;SDS011;2873;50.966;7.210;2023-08-24T08:27:26;5.82;;;3.50;;
5696;SDS011;2873;50.966;7.210;2023-08-24T08:29:59;4.50;;;3.20;;
5696;SDS011;2873;50.966;7.210;2023-08-24T08:32:25;6.67;;;3.80;;
5696;SDS011;2873;50.966;7.210;2023-08-24T08:34:53;5.88;;;3.90;;
5696;SDS011;2873;50.966;7.210;2023-08-24T08:37:19;4.82;;;3.30;;
5696;SDS011;2873;50.966;7.210;2023-08-24T08:39:45;3.67;;;3.20;;
5696;SDS011;2873;50.966;7.210;2023-08-24T08:42:11;5.20;;;3.97;;
5696;SDS011;2873;50.966;7.210;2023-08-24T08:44:38;3.83;;;3.40;;
5696;SDS011;2873;50.966;7.210;2023-08-24T08:47:05;5.18;;;3.40;;
5696;SDS011;2873;50.966;7.210;2023-08-24T08:49:33;4.97;;;3.70;;
5696;SDS011;2873;50.966;7.210;2023-08-24T08:52:00;4.95;;;4.00;;
5696;SDS011;2873;50.966;7.210;2023-08-24T08:54:26;5.35;;;3.50;;
5696;SDS011;2873;50.966;7.210;2023-08-24T08:56:52;3.40;;;3.10;;
5696;SDS011;2873;50.966;7.210;2023-08-24T08:59:18;4.93;;;3.60;;
5696;SDS011;2873;50.966;7.210;2023-08-24T09:01:44;4.00;;;3.60;;
5696;SDS011;2873;50.966;7.210;2023-08-24T09:04:12;6.45;;;3.60;;
5696;SDS011;2873;50.966;7.210;2023-08-24T09:06:38;4.45;;;3.20;;
5696;SDS011;2873;50.966;7.210;2023-08-24T09:09:04;4.77;;;3.30;;
5696;SDS011;2873;50.966;7.210;2023-08-24T09:11:30;6.72;;;3.53;;
5696;SDS011;2873;50.966;7.210;2023-08-24T09:13:56;4.50;;;3.30;;
5696;SDS011;2873;50.966;7.210;2023-08-24T09:16:21;3.47;;;3.17;;
5696;SDS011;2873;50.966;7.210;2023-08-24T09:18:47;3.97;;;3.08;;
5696;SDS011;2873;50.966;7.210;2023-08-24T09:21:14;5.90;;;3.10;;
5696;SDS011;2873;50.966;7.210;2023-08-24T09:23:43;3.35;;;3.05;;
5696;SDS011;2873;50.966;7.210;2023-08-24T09:26:10;4.20;;;3.00;;
5696;SDS011;2873;50.966;7.210;2023-08-24T09:28:37;3.45;;;3.20;;
5696;SDS011;2873;50.966;7.210;2023-08-24T09:31:04;4.00;;;3.10;;
5696;SDS011;2873;50.966;7.210;2023-08-24T09:33:30;3.47;;;3.00;;
5696;SDS011;2873;50.966;7.210;2023-08-24T09:35:56;5.23;;;3.30;;
5696;SDS011;2873;50.966;7.210;2023-08-24T09:38:26;3.75;;;3.00;;
5696;SDS011;2873;50.966;7.210;2023-08-24T09:40:53;3.50;;;3.20;;
5696;SDS011;2873;50.966;7.210;2023-08-24T09:43:20;4.55;;;3.50;;
5696;SDS011;2873;50.966;7.210;2023-08-24T09:48:18;3.43;;;3.13;;
5696;SDS011;2873;50.966;7.210;2023-08-24T09:50:45;3.40;;;3.10;;
5696;SDS011;2873;50.966;7.210;2023-08-24T09:53:18;3.53;;;3.10;;
5696;SDS011;2873;50.966;7.210;2023-08-24T09:55:48;3.55;;;2.90;;
5696;SDS011;2873;50.966;7.210;2023-08-24T09:58:15;3.60;;;3.30;;
5696;SDS011;2873;50.966;7.210;2023-08-24T10:00:42;3.83;;;3.47;;
5696;SDS011;2873;50.966;7.210;2023-08-24T10:03:12;4.60;;;3.60;;
5696;SDS011;2873;50.966;7.210;2023-08-24T10:05:43;5.10;;;3.25;;
5696;SDS011;2873;50.966;7.210;2023-08-24T10:08:09;5.20;;;3.20;;
5696;SDS011;2873;50.966;7.210;2023-08-24T10:10:36;3.10;;;2.90;;
5696;SDS011;2873;50.966;7.210;2023-08-24T10:13:06;2.97;;;2.77;;
5696;SDS011;2873;50.966;7.210;2023-08-24T10:15:42;5.03;;;3.50;;
5696;SDS011;2873;50.966;7.210;2023-08-24T10:18:11;5.75;;;3.03;;
5696;SDS011;2873;50.966;7.210;2023-08-24T10:20:38;2.92;;;2.72;;
5696;SDS011;2873;50.966;7.210;2023-08-24T10:23:04;4.10;;;3.30;;
5696;SDS011;2873;50.966;7.210;2023-08-24T10:25:30;4.95;;;3.05;;
5696;SDS011;2873;50.966;7.210;2023-08-24T10:27:57;7.40;;;2.80;;
5696;SDS011;2873;50.966;7.210;2023-08-24T10:30:25;3.00;;;2.70;;
5696;SDS011;2873;50.966;7.210;2023-08-24T10:32:51;3.25;;;2.85;;
5696;SDS011;2873;50.966;7.210;2023-08-24T10:35:18;2.90;;;2.70;;
5696;SDS011;2873;50.966;7.210;2023-08-24T10:37:46;6.30;;;3.00;;
5696;SDS011;2873;50.966;7.210;2023-08-24T10:40:11;2.42;;;2.22;;
5696;SDS011;2873;50.966;7.210;2023-08-24T10:42:44;3.40;;;2.67;;
5696;SDS011;2873;50.966;7.210;2023-08-24T10:45:12;3.00;;;2.60;;
5696;SDS011;2873;50.966;7.210;2023-08-24T10:47:45;2.90;;;2.60;;
5696;SDS011;2873;50.966;7.210;2023-08-24T10:50:11;3.38;;;3.13;;
5696;SDS011;2873;50.966;7.210;2023-08-24T10:52:37;4.10;;;2.50;;
5696;SDS011;2873;50.966;7.210;2023-08-24T10:55:04;2.80;;;2.60;;
5696;SDS011;2873;50.966;7.210;2023-08-24T10:57:51;3.40;;;2.83;;
5696;SDS011;2873;50.966;7.210;2023-08-24T11:00:25;5.15;;;3.05;;
5696;SDS011;2873;50.966;7.210;2023-08-24T11:02:54;4.05;;;2.63;;
5696;SDS011;2873;50.966;7.210;2023-08-24T11:05:24;3.60;;;3.30;;
5696;SDS011;2873;50.966;7.210;2023-08-24T11:07:57;3.75;;;3.00;;
5696;SDS011;2873;50.966;7.210;2023-08-24T11:18:19;3.47;;;3.17;;
5696;SDS011;2873;50.966;7.210;2023-08-24T11:23:18;3.20;;;3.00;;
5696;SDS011;2873;50.966;7.210;2023-08-24T11:25:45;3.33;;;3.03;;
5696;SDS011;2873;50.966;7.210;2023-08-24T11:28:16;4.73;;;2.80;;
5696;SDS011;2873;50.966;7.210;2023-08-24T11:30:48;5.05;;;2.70;;
5696;SDS011;2873;50.966;7.210;2023-08-24T11:33:15;4.45;;;3.15;;
5696;SDS011;2873;50.966;7.210;2023-08-24T11:35:43;9.52;;;6.50;;
5696;SDS011;2873;50.966;7.210;2023-08-24T11:38:09;6.82;;;3.60;;
5696;SDS011;2873;50.966;7.210;2023-08-24T11:40:35;5.63;;;2.70;;
5696;SDS011;2873;50.966;7.210;2023-08-24T11:43:02;8.07;;;3.30;;
5696;SDS011;2873;50.966;7.210;2023-08-24T11:45:31;3.77;;;2.33;;
5696;SDS011;2873;50.966;7.210;2023-08-24T11:47:59;4.35;;;2.60;;
5696;SDS011;2873;50.966;7.210;2023-08-24T11:50:26;3.80;;;2.38;;
5696;SDS011;2873;50.966;7.210;2023-08-24T11:52:53;2.47;;;2.28;;
5696;SDS011;2873;50.966;7.210;2023-08-24T11:55:24;4.10;;;3.00;;
5696;SDS011;2873;50.966;7.210;2023-08-24T11:57:50;5.65;;;2.80;;
5696;SDS011;2873;50.966;7.210;2023-08-24T12:00:19;3.00;;;2.70;;
5696;SDS011;2873;50.966;7.210;2023-08-24T12:02:46;5.40;;;2.60;;
5696;SDS011;2873;50.966;7.210;2023-08-24T12:05:22;4.22;;;2.70;;
5696;SDS011;2873;50.966;7.210;2023-08-24T12:07:49;6.70;;;2.45;;
5696;SDS011;2873;50.966;7.210;2023-08-24T12:10:17;3.00;;;2.70;;
5696;SDS011;2873;50.966;7.210;2023-08-24T12:12:42;2.93;;;2.73;;
5696;SDS011;2873;50.966;7.210;2023-08-24T12:15:14;4.70;;;2.93;;
5696;SDS011;2873;50.966;7.210;2023-08-24T12:17:45;6.00;;;2.80;;
5696;SDS011;2873;50.966;7.210;2023-08-24T12:20:18;5.73;;;3.00;;
5696;SDS011;2873;50.966;7.210;2023-08-24T12:22:50;4.13;;;2.90;;
5696;SDS011;2873;50.966;7.210;2023-08-24T12:25:22;3.90;;;2.50;;
5696;SDS011;2873;50.966;7.210;2023-08-24T12:27:49;5.60;;;3.15;;
5696;SDS011;2873;50.966;7.210;2023-08-24T12:30:18;3.70;;;3.10;;
5696;SDS011;2873;50.966;7.210;2023-08-24T12:32:45;5.20;;;3.17;;
5696;SDS011;2873;50.966;7.210;2023-08-24T12:35:13;3.20;;;2.90;;
5696;SDS011;2873;50.966;7.210;2023-08-24T12:37:39;5.25;;;2.90;;
5696;SDS011;2873;50.966;7.210;2023-08-24T12:40:05;3.20;;;2.90;;
5696;SDS011;2873;50.966;7.210;2023-08-24T12:42:33;3.38;;;3.10;;
5696;SDS011;2873;50.966;7.210;2023-08-24T12:44:59;5.10;;;2.75;;
5696;SDS011;2873;50.966;7.210;2023-08-24T12:47:24;3.13;;;2.90;;
5696;SDS011;2873;50.966;7.210;2023-08-24T12:49:51;4.80;;;2.80;;
5696;SDS011;2873;50.966;7.210;2023-08-24T12:52:21;3.50;;;3.10;;
5696;SDS011;2873;50.966;7.210;2023-08-24T12:54:47;3.50;;;3.10;;
5696;SDS011;2873;50.966;7.210;2023-08-24T12:57:13;5.40;;;3.00;;
5696;SDS011;2873;50.966;7.210;2023-08-24T12:59:39;3.60;;;3.30;;
5696;SDS011;2873;50.966;7.210;2023-08-24T13:02:05;4.60;;;3.45;;
5696;SDS011;2873;50.966;7.210;2023-08-24T13:04:31;3.33;;;3.13;;
5696;SDS011;2873;50.966;7.210;2023-08-24T13:06:58;3.60;;;3.30;;
5696;SDS011;2873;50.966;7.210;2023-08-24T13:09:23;4.95;;;3.20;;
5696;SDS011;2873;50.966;7.210;2023-08-24T13:11:49;6.50;;;3.40;;
5696;SDS011;2873;50.966;7.210;2023-08-24T13:14:15;3.70;;;3.30;;
5696;SDS011;2873;50.966;7.210;2023-08-24T13:16:40;3.30;;;3.10;;
5696;SDS011;2873;50.966;7.210;2023-08-24T13:19:06;6.40;;;3.57;;
5696;SDS011;2873;50.966;7.210;2023-08-24T13:21:32;5.75;;;3.78;;
5696;SDS011;2873;50.966;7.210;2023-08-24T13:23:58;9.23;;;3.40;;
5696;SDS011;2873;50.966;7.210;2023-08-24T13:26:23;4.13;;;3.30;;
5696;SDS011;2873;50.966;7.210;2023-08-24T13:28:49;3.77;;;3.37;;
5696;SDS011;2873;50.966;7.210;2023-08-24T13:31:15;4.82;;;4.43;;
5696;SDS011;2873;50.966;7.210;2023-08-24T13:33:41;4.90;;;3.77;;
5696;SDS011;2873;50.966;7.210;2023-08-24T13:36:06;5.70;;;3.33;;
5696;SDS011;2873;50.966;7.210;2023-08-24T13:38:32;7.80;;;3.80;;
5696;SDS011;2873;50.966;7.210;2023-08-24T13:40:57;7.10;;;3.60;;
5696;SDS011;2873;50.966;7.210;2023-08-24T13:43:23;5.00;;;3.67;;
5696;SDS011;2873;50.966;7.210;2023-08-24T13:45:48;5.93;;;4.00;;
5696;SDS011;2873;50.966;7.210;2023-08-24T13:48:14;6.60;;;3.75;;
5696;SDS011;2873;50.966;7.210;2023-08-24T13:50:41;5.82;;;3.90;;
5696;SDS011;2873;50.966;7.210;2023-08-24T13:53:07;5.97;;;3.38;;
5696;SDS011;2873;50.966;7.210;2023-08-24T13:55:32;6.13;;;3.77;;
5696;SDS011;2873;50.966;7.210;2023-08-24T13:57:58;4.10;;;3.33;;
5696;SDS011;2873;50.966;7.210;2023-08-24T14:00:24;7.93;;;3.50;;
5696;SDS011;2873;50.966;7.210;2023-08-24T14:02:51;4.17;;;3.60;;
5696;SDS011;2873;50.966;7.210;2023-08-24T14:05:16;8.17;;;3.70;;
5696;SDS011;2873;50.966;7.210;2023-08-24T14:07:42;6.30;;;3.70;;
5696;SDS011;2873;50.966;7.210;2023-08-24T14:10:07;11.32;;;3.50;;
5696;SDS011;2873;50.966;7.210;2023-08-24T14:12:33;7.63;;;3.70;;
5696;SDS011;2873;50.966;7.210;2023-08-24T14:14:59;7.47;;;4.10;;
5696;SDS011;2873;50.966;7.210;2023-08-24T14:17:25;3.75;;;3.45;;
5696;SDS011;2873;50.966;7.210;2023-08-24T14:19:51;7.27;;;3.67;;
5696;SDS011;2873;50.966;7.210;2023-08-24T14:22:16;5.80;;;3.27;;
5696;SDS011;2873;50.966;7.210;2023-08-24T14:24:42;8.50;;;3.97;;
5696;SDS011;2873;50.966;7.210;2023-08-24T14:27:07;5.97;;;3.70;;
5696;SDS011;2873;50.966;7.210;2023-08-24T14:29:33;6.03;;;3.40;;
5696;SDS011;2873;50.966;7.210;2023-08-24T14:31:59;7.43;;;3.97;;
5696;SDS011;2873;50.966;7.210;2023-08-24T14:34:24;6.70;;;3.80;;
5696;SDS011;2873;50.966;7.210;2023-08-24T14:36:50;7.67;;;3.30;;
5696;SDS011;2873;50.966;7.210;2023-08-24T14:39:15;6.37;;;3.30;;
5696;SDS011;2873;50.966;7.210;2023-08-24T14:41:41;4.90;;;3.43;;
5696;SDS011;2873;50.966;7.210;2023-08-24T14:44:06;7.13;;;4.07;;
5696;SDS011;2873;50.966;7.210;2023-08-24T14:46:33;7.50;;;3.60;;
5696;SDS011;2873;50.966;7.210;2023-08-24T14:48:58;5.10;;;3.40;;
5696;SDS011;2873;50.966;7.210;2023-08-24T14:51:24;5.85;;;3.28;;
5696;SDS011;2873;50.966;7.210;2023-08-24T14:53:50;6.45;;;3.50;;
5696;SDS011;2873;50.966;7.210;2023-08-24T14:56:15;7.25;;;3.60;;
5696;SDS011;2873;50.966;7.210;2023-08-24T14:58:41;10.23;;;3.15;;
5696;SDS011;2873;50.966;7.210;2023-08-24T15:01:06;7.32;;;3.55;;
5696;SDS011;2873;50.966;7.210;2023-08-24T15:03:32;11.55;;;3.60;;
5696;SDS011;2873;50.966;7.210;2023-08-24T15:06:01;6.37;;;3.50;;
5696;SDS011;2873;50.966;7.210;2023-08-24T15:08:32;6.35;;;3.95;;
5696;SDS011;2873;50.966;7.210;2023-08-24T15:10:59;6.35;;;3.22;;
5696;SDS011;2873;50.966;7.210;2023-08-24T15:13:26;9.37;;;3.50;;
5696;SDS011;2873;50.966;7.210;2023-08-24T15:15:53;7.63;;;3.25;;
5696;SDS011;2873;50.966;7.210;2023-08-24T15:18:20;7.03;;;3.30;;
5696;SDS011;2873;50.966;7.210;2023-08-24T15:20:46;5.27;;;3.00;;
5696;SDS011;2873;50.966;7.210;2023-08-24T15:23:24;3.77;;;2.97;;
5696;SDS011;2873;50.966;7.210;2023-08-24T15:25:51;4.55;;;3.05;;
5696;SDS011;2873;50.966;7.210;2023-08-24T15:28:18;6.50;;;3.10;;
5696;SDS011;2873;50.966;7.210;2023-08-24T15:30:44;3.45;;;2.63;;
5696;SDS011;2873;50.966;7.210;2023-08-24T15:33:10;3.50;;;2.80;;
5696;SDS011;2873;50.966;7.210;2023-08-24T15:35:36;6.30;;;2.90;;